createdAt,value
2022-08-23T00:02:28.573Z,41.12
2022-08-23T00:05:09.301Z,41.27
2022-08-23T00:07:40.997Z,41.09
2022-08-23T00:10:12.445Z,41.38
2022-08-23T00:12:41.453Z,41.46
2022-08-23T00:15:13.365Z,41.59
2022-08-23T00:17:43.897Z,41.68
2022-08-23T00:20:16.383Z,41.62
2022-08-23T00:22:45.632Z,41.99
2022-08-23T00:25:15.361Z,41.94
2022-08-23T00:27:44.016Z,41.98
2022-08-23T00:30:14.813Z,42.06
2022-08-23T00:32:45.360Z,42.14
2022-08-23T00:35:26.678Z,42.27
2022-08-23T00:38:14.656Z,42.41
2022-08-23T00:40:52.211Z,42.50
2022-08-23T00:43:45.610Z,42.51
2022-08-23T00:46:45.341Z,42.53
2022-08-23T00:49:18.879Z,43.06
2022-08-23T00:51:54.221Z,43.18
2022-08-23T00:54:25.243Z,43.54
2022-08-23T00:56:54.588Z,43.90
2022-08-23T00:59:24.237Z,43.90
2022-08-23T01:01:53.246Z,43.98
2022-08-23T01:04:23.183Z,44.00
2022-08-23T01:07:00.412Z,43.92
2022-08-23T01:09:29.149Z,44.19
2022-08-23T01:12:04.977Z,44.25
2022-08-23T01:14:39.126Z,44.18
2022-08-23T01:17:16.582Z,44.41
2022-08-23T01:19:52.929Z,44.29
2022-08-23T01:22:28.365Z,44.52
2022-08-23T01:25:06.536Z,44.63
2022-08-23T01:27:40.454Z,44.68
2022-08-23T01:30:13.216Z,44.84
2022-08-23T01:32:48.861Z,44.84
2022-08-23T01:37:48.152Z,45.04
2022-08-23T01:40:18.148Z,45.28
2022-08-23T01:42:47.407Z,45.23
2022-08-23T01:45:17.102Z,45.25
2022-08-23T01:47:46.192Z,45.47
2022-08-23T01:50:15.269Z,45.51
2022-08-23T01:52:47.064Z,45.67
2022-08-23T01:55:20.110Z,45.76
2022-08-23T01:57:54.045Z,45.97
2022-08-23T02:00:26.204Z,46.17
2022-08-23T02:02:55.432Z,46.37
2022-08-23T02:05:24.360Z,46.57
2022-08-23T02:07:53.504Z,46.96
2022-08-23T02:10:24.097Z,46.95
2022-08-23T02:12:52.888Z,47.07
2022-08-23T02:15:23.565Z,47.09
2022-08-23T02:17:53.017Z,47.33
2022-08-23T02:20:22.435Z,47.47
2022-08-23T02:22:51.364Z,47.66
2022-08-23T02:25:20.072Z,47.66
2022-08-23T02:27:49.830Z,48.16
2022-08-23T02:30:18.652Z,48.31
2022-08-23T02:32:47.324Z,48.29
2022-08-23T02:35:16.926Z,48.17
2022-08-23T02:37:45.392Z,48.50
2022-08-23T02:40:14.221Z,48.45
2022-08-23T02:42:43.574Z,48.38
2022-08-23T02:45:14.261Z,48.88
2022-08-23T02:47:48.018Z,49.05
2022-08-23T02:50:22.085Z,49.28
2022-08-23T02:52:50.763Z,49.20
2022-08-23T02:55:19.385Z,49.57
2022-08-23T02:57:48.235Z,49.40
2022-08-23T03:00:19.500Z,49.59
2022-08-23T03:02:48.697Z,49.82
2022-08-23T03:05:18.389Z,49.91
2022-08-23T03:07:46.997Z,49.81
2022-08-23T03:10:16.368Z,50.02
2022-08-23T03:12:50.024Z,50.31
2022-08-23T03:15:20.081Z,50.63
2022-08-23T03:17:49.225Z,50.67
2022-08-23T03:20:17.689Z,50.44
2022-08-23T03:22:54.895Z,50.46
2022-08-23T03:25:26.875Z,50.60
2022-08-23T03:28:07.388Z,50.72
2022-08-23T03:30:40.627Z,51.04
2022-08-23T03:33:10.683Z,51.05
2022-08-23T03:35:39.660Z,51.51
2022-08-23T03:38:11.193Z,51.61
2022-08-23T03:40:39.824Z,51.62
2022-08-23T03:43:08.610Z,51.53
2022-08-23T03:45:40.333Z,51.72
2022-08-23T03:48:10.302Z,51.64
2022-08-23T03:50:39.832Z,52.03
2022-08-23T03:53:09.081Z,52.11
2022-08-23T03:55:42.437Z,52.08
2022-08-23T03:58:14.603Z,52.61
2022-08-23T04:00:44.500Z,52.43
2022-08-23T04:03:13.155Z,52.95
2022-08-23T04:05:57.843Z,53.01
2022-08-23T04:08:28.055Z,53.22
2022-08-23T04:11:03.275Z,53.22
2022-08-23T04:13:31.987Z,53.28
2022-08-23T04:16:05.817Z,53.36
2022-08-23T04:18:36.628Z,53.47
2022-08-23T04:21:10.957Z,53.64
2022-08-23T04:23:40.562Z,54.00
2022-08-23T04:26:09.632Z,54.60
2022-08-23T04:28:39.621Z,54.70
2022-08-23T04:31:09.700Z,54.61
2022-08-23T04:33:41.048Z,54.97
2022-08-23T04:36:12.980Z,55.28
2022-08-23T04:38:41.541Z,55.21
2022-08-23T04:41:30.099Z,55.57
2022-08-23T04:44:00.139Z,55.78
2022-08-23T04:46:31.450Z,55.74
2022-08-23T04:49:02.703Z,55.96
2022-08-23T04:51:31.309Z,56.21
2022-08-23T04:53:59.759Z,56.11
2022-08-23T04:56:57.401Z,56.35
2022-08-23T04:59:26.136Z,56.62
2022-08-23T05:01:55.884Z,56.69
2022-08-23T05:04:24.462Z,56.51
2022-08-23T05:06:53.205Z,56.59
2022-08-23T05:09:25.057Z,56.84
2022-08-23T05:11:53.636Z,56.58
2022-08-23T05:14:23.543Z,56.69
2022-08-23T05:16:52.550Z,56.79
2022-08-23T05:19:24.350Z,56.75
2022-08-23T05:21:56.913Z,57.13
2022-08-23T05:24:32.237Z,57.21
2022-08-23T05:27:01.585Z,56.87
2022-08-23T05:29:31.262Z,56.91
2022-08-23T05:31:59.999Z,57.08
2022-08-23T05:34:29.937Z,57.18
2022-08-23T05:36:59.849Z,57.18
2022-08-23T05:39:41.455Z,56.82
2022-08-23T05:42:16.999Z,56.99
2022-08-23T05:44:46.591Z,56.24
2022-08-23T05:47:24.611Z,56.62
2022-08-23T05:50:24.128Z,56.96
2022-08-23T05:52:52.962Z,56.86
2022-08-23T05:55:22.277Z,56.65
2022-08-23T05:58:23.037Z,56.63
2022-08-23T06:00:51.889Z,56.98
2022-08-23T06:03:20.836Z,56.92
2022-08-23T06:05:51.025Z,56.55
2022-08-23T06:08:19.429Z,56.70
2022-08-23T06:10:47.840Z,56.36
2022-08-23T06:13:24.306Z,56.45
2022-08-23T06:15:52.721Z,56.39
2022-08-23T06:18:21.192Z,56.48
2022-08-23T06:21:02.383Z,56.14
2022-08-23T06:23:41.886Z,56.62
2022-08-23T06:26:16.726Z,56.14
2022-08-23T06:28:50.354Z,56.13
2022-08-23T06:31:40.862Z,56.25
2022-08-23T06:34:18.501Z,56.14
2022-08-23T06:37:18.021Z,56.09
2022-08-23T06:40:27.711Z,55.85
2022-08-23T06:43:01.406Z,55.91
2022-08-23T06:45:58.314Z,55.79
2022-08-23T06:48:27.082Z,55.61
2022-08-23T06:50:56.023Z,55.76
2022-08-23T06:53:34.073Z,55.37
2022-08-23T06:56:35.326Z,55.01
2022-08-23T06:59:08.278Z,54.72
2022-08-23T07:02:05.389Z,54.53
2022-08-23T07:04:54.223Z,54.45
2022-08-23T07:07:44.178Z,54.23
2022-08-23T07:10:16.299Z,53.69
2022-08-23T07:12:45.629Z,52.54
2022-08-23T07:15:14.984Z,51.59
2022-08-23T07:17:46.151Z,50.64
2022-08-23T07:20:15.545Z,49.76
2022-08-23T07:22:45.865Z,48.93
2022-08-23T07:25:18.143Z,47.70
2022-08-23T07:27:50.055Z,47.36
2022-08-23T07:30:22.122Z,46.46
2022-08-23T07:32:52.680Z,45.44
2022-08-23T07:35:23.643Z,45.00
2022-08-23T07:37:55.439Z,45.04
2022-08-23T07:40:27.753Z,44.66
2022-08-23T07:42:59.723Z,44.58
2022-08-23T07:45:30.161Z,44.30
2022-08-23T07:48:03.004Z,44.03
2022-08-23T07:50:37.776Z,43.97
2022-08-23T07:53:37.710Z,43.55
2022-08-23T07:56:13.759Z,43.13
2022-08-23T07:58:54.677Z,42.01
2022-08-23T08:01:49.925Z,41.46
2022-08-23T08:04:18.434Z,40.70
2022-08-23T08:07:10.609Z,40.31
2022-08-23T08:09:44.150Z,39.69
2022-08-23T08:12:14.033Z,39.34
2022-08-23T08:14:44.684Z,39.31
2022-08-23T08:17:15.900Z,38.93
2022-08-23T08:20:21.726Z,38.31
2022-08-23T08:23:30.132Z,37.85
2022-08-23T08:26:16.048Z,37.43
2022-08-23T08:28:56.250Z,36.97
2022-08-23T08:31:27.459Z,36.48
2022-08-23T08:33:57.362Z,35.84
2022-08-23T08:36:33.565Z,35.97
2022-08-23T08:39:02.871Z,34.75
2022-08-23T08:42:04.498Z,34.76
2022-08-23T08:44:46.022Z,34.78
2022-08-23T08:47:31.407Z,34.20
2022-08-23T08:50:10.738Z,33.94
2022-08-23T08:52:44.965Z,33.34
2022-08-23T08:55:26.207Z,33.44
2022-08-23T08:57:56.494Z,32.44
2022-08-23T09:00:32.542Z,32.41
2022-08-23T09:03:05.436Z,32.10
2022-08-23T09:05:39.571Z,31.75
2022-08-23T09:08:27.780Z,31.71
2022-08-23T09:11:06.509Z,31.41
2022-08-23T09:14:18.503Z,30.90
2022-08-23T09:16:54.254Z,30.61
2022-08-23T09:19:26.198Z,30.43
2022-08-23T09:22:00.165Z,30.05
2022-08-23T09:24:29.040Z,29.33
2022-08-23T09:27:12.637Z,29.36
2022-08-23T09:29:53.388Z,29.41
2022-08-23T09:32:34.540Z,29.37
2022-08-23T09:35:17.890Z,28.83
2022-08-23T09:38:00.553Z,28.79
2022-08-23T09:40:41.079Z,28.12
2022-08-23T09:43:16.310Z,27.83
2022-08-23T09:45:58.884Z,27.80
2022-08-23T09:48:40.574Z,27.72
2022-08-23T09:51:21.220Z,27.40
2022-08-23T09:54:03.622Z,27.15
2022-08-23T09:56:37.928Z,26.72
2022-08-23T09:59:33.616Z,26.58
2022-08-23T10:02:18.425Z,26.49
2022-08-23T10:05:02.027Z,26.17
2022-08-23T10:07:42.458Z,26.15
2022-08-23T10:10:30.227Z,26.32
2022-08-23T10:13:03.423Z,25.71
2022-08-23T10:15:49.327Z,26.24
2022-08-23T10:18:33.469Z,25.52
2022-08-23T10:21:08.927Z,25.66
2022-08-23T10:23:51.881Z,25.87
2022-08-23T10:26:28.385Z,25.71
2022-08-23T10:29:24.808Z,25.80
2022-08-23T10:32:04.609Z,25.53
2022-08-23T10:34:54.133Z,25.28
2022-08-23T10:37:46.789Z,25.09
2022-08-23T10:40:23.674Z,25.05
2022-08-23T10:43:11.416Z,25.38
2022-08-23T10:45:44.347Z,25.22
2022-08-23T10:48:29.470Z,25.14
2022-08-23T10:51:03.733Z,24.89
2022-08-23T10:53:46.185Z,24.50
2022-08-23T10:56:19.212Z,25.05
2022-08-23T10:58:57.999Z,24.80
2022-08-23T11:01:35.111Z,24.79
2022-08-23T11:04:09.983Z,24.44
2022-08-23T11:06:59.111Z,24.52
2022-08-23T11:09:53.732Z,24.17
2022-08-23T11:12:31.891Z,23.94
2022-08-23T11:15:20.409Z,23.65
2022-08-23T11:18:08.624Z,23.42
2022-08-23T11:21:08.321Z,22.81
2022-08-23T11:23:49.479Z,22.66
2022-08-23T11:27:07.421Z,22.77
2022-08-23T11:29:43.562Z,22.47
2022-08-23T11:32:45.390Z,22.50
2022-08-23T11:35:43.336Z,23.02
2022-08-23T11:38:15.475Z,22.45
2022-08-23T11:41:23.508Z,22.58
2022-08-23T11:44:28.975Z,22.28
2022-08-23T11:47:06.688Z,22.20
2022-08-23T11:50:12.959Z,22.30
2022-08-23T11:53:47.275Z,21.97
2022-08-23T11:56:46.710Z,21.84
2022-08-23T11:59:42.846Z,21.85
2022-08-23T12:02:47.474Z,21.64
2022-08-23T12:05:32.443Z,21.45
2022-08-23T12:08:51.042Z,21.31
2022-08-23T12:11:21.508Z,20.98
2022-08-23T12:14:01.626Z,20.44
2022-08-23T12:16:44.253Z,20.30
2022-08-23T12:19:35.855Z,20.30
2022-08-23T12:22:13.746Z,19.90
2022-08-23T12:24:46.996Z,19.48
2022-08-23T12:27:30.084Z,19.71
2022-08-23T12:30:08.511Z,19.65
2022-08-23T12:32:48.782Z,19.29
2022-08-23T12:35:36.214Z,19.64
2022-08-23T12:38:12.064Z,19.54
2022-08-23T12:40:44.741Z,19.57
2022-08-23T12:43:22.949Z,19.59
2022-08-23T12:45:56.240Z,19.66
2022-08-23T12:48:29.824Z,19.40
2022-08-23T12:51:01.100Z,19.23
2022-08-23T12:53:34.500Z,18.93
2022-08-23T12:56:07.816Z,19.11
2022-08-23T12:58:40.434Z,19.04
2022-08-23T13:01:21.468Z,18.65
2022-08-23T13:03:57.302Z,18.49
2022-08-23T13:06:32.520Z,18.52
2022-08-23T13:09:07.108Z,18.36
2022-08-23T13:11:37.885Z,18.51
2022-08-23T13:14:25.609Z,18.65
2022-08-23T13:16:54.982Z,18.43
2022-08-23T13:19:30.515Z,18.62
2022-08-23T13:22:13.788Z,18.33
2022-08-23T13:24:44.991Z,17.96
2022-08-23T13:27:23.881Z,17.83
2022-08-23T13:29:56.471Z,17.31
2022-08-23T13:32:41.757Z,17.23
2022-08-23T13:35:36.752Z,17.23
2022-08-23T13:38:21.590Z,17.53
2022-08-23T13:41:06.115Z,17.66
2022-08-23T13:43:40.873Z,17.25
2022-08-23T13:46:17.982Z,17.68
2022-08-23T13:48:59.328Z,17.21
2022-08-23T13:51:37.057Z,17.06
2022-08-23T13:54:08.953Z,17.05
2022-08-23T13:56:42.139Z,16.68
2022-08-23T13:59:28.142Z,17.00
2022-08-23T14:02:02.554Z,16.29
2022-08-23T14:04:31.212Z,16.40
2022-08-23T14:07:01.064Z,16.47
2022-08-23T14:09:29.577Z,16.62
2022-08-23T14:12:03.101Z,16.64
2022-08-23T14:14:34.589Z,16.55
2022-08-23T14:17:03.451Z,16.49
2022-08-23T14:22:21.989Z,16.71
2022-08-23T14:24:50.326Z,16.70
2022-08-23T14:27:18.729Z,16.61
2022-08-23T14:29:47.149Z,16.10
2022-08-23T14:32:15.613Z,16.39
2022-08-23T14:34:44.079Z,16.29
2022-08-23T14:40:02.486Z,15.86
2022-08-23T14:42:31.738Z,16.22
2022-08-23T14:45:00.190Z,16.08
2022-08-23T14:47:28.872Z,15.81
2022-08-23T14:49:57.569Z,15.84
2022-08-23T14:52:26.026Z,16.44
2022-08-23T14:54:54.483Z,16.11
2022-08-23T14:57:24.321Z,15.99
2022-08-23T14:59:52.667Z,15.51
2022-08-23T15:02:26.308Z,15.62
2022-08-23T15:04:55.715Z,15.50
2022-08-23T15:07:24.640Z,15.62
2022-08-23T15:09:55.550Z,15.58
2022-08-23T15:15:21.743Z,15.73
2022-08-23T15:17:54.192Z,15.94
2022-08-23T15:20:25.985Z,15.49
2022-08-23T15:22:55.395Z,15.90
2022-08-23T15:25:25.822Z,15.73
2022-08-23T15:27:57.008Z,16.20
2022-08-23T15:30:26.118Z,16.13
2022-08-23T15:32:58.700Z,15.89
2022-08-23T15:35:28.547Z,16.67
2022-08-23T15:37:58.349Z,16.35
2022-08-23T15:40:27.212Z,16.69
2022-08-23T15:42:57.165Z,16.64
2022-08-23T15:45:25.570Z,16.83
2022-08-23T15:47:56.822Z,16.54
2022-08-23T15:50:28.829Z,16.60
2022-08-23T15:52:57.273Z,16.70
2022-08-23T15:55:29.188Z,16.58
2022-08-23T15:57:59.244Z,16.76
2022-08-23T16:00:29.280Z,16.95
2022-08-23T16:03:18.354Z,16.70
2022-08-23T16:05:50.201Z,17.02
2022-08-23T16:08:23.732Z,16.99
2022-08-23T16:10:52.451Z,16.89
2022-08-23T16:13:23.569Z,16.69
2022-08-23T16:15:52.540Z,16.81
2022-08-23T16:18:21.270Z,17.04
2022-08-23T16:20:49.773Z,17.00
2022-08-23T16:23:23.527Z,16.69
2022-08-23T16:25:55.112Z,16.89
2022-08-23T16:28:27.809Z,16.77
2022-08-23T16:30:56.274Z,16.99
2022-08-23T16:33:24.697Z,16.98
2022-08-23T16:35:53.241Z,17.19
2022-08-23T16:38:21.661Z,17.23
2022-08-23T16:40:50.310Z,17.25
2022-08-23T16:43:18.739Z,17.49
2022-08-23T16:45:48.509Z,17.54
2022-08-23T16:48:17.415Z,17.89
2022-08-23T16:50:46.358Z,17.98
2022-08-23T16:53:15.697Z,17.98
2022-08-23T16:55:44.544Z,17.76
2022-08-23T16:58:13.003Z,17.45
2022-08-23T17:00:41.380Z,17.49
2022-08-23T17:03:11.180Z,17.64
2022-08-23T17:05:39.561Z,17.92
2022-08-23T17:08:08.197Z,18.03
2022-08-23T17:10:36.548Z,18.20
2022-08-23T17:13:06.149Z,18.35
2022-08-23T17:15:37.645Z,19.59
2022-08-23T17:18:06.867Z,19.27
2022-08-23T17:20:39.294Z,19.94
2022-08-23T17:23:09.360Z,19.60
2022-08-23T17:25:41.604Z,20.00
2022-08-23T17:28:10.006Z,19.96
2022-08-23T17:30:38.452Z,20.09
2022-08-23T17:33:08.359Z,19.80
2022-08-23T17:35:38.429Z,19.97
2022-08-23T17:38:08.434Z,20.18
2022-08-23T17:40:41.166Z,20.50
2022-08-23T17:43:10.067Z,20.67
2022-08-23T17:45:43.601Z,20.95
2022-08-23T17:48:12.716Z,21.30
2022-08-23T17:50:43.628Z,21.37
2022-08-23T17:53:13.553Z,22.03
2022-08-23T17:55:42.148Z,21.93
2022-08-23T17:58:12.091Z,22.31
2022-08-23T18:00:41.753Z,22.60
2022-08-23T18:03:10.186Z,23.21
2022-08-23T18:05:42.720Z,23.44
2022-08-23T18:08:11.580Z,23.76
2022-08-23T18:10:40.528Z,23.92
2022-08-23T18:13:08.974Z,24.25
2022-08-23T18:15:37.618Z,24.43
2022-08-23T18:18:06.516Z,24.56
2022-08-23T18:20:35.449Z,24.80
2022-08-23T18:23:05.887Z,24.93
2022-08-23T18:25:34.659Z,25.42
2022-08-23T18:28:09.159Z,25.55
2022-08-23T18:30:38.887Z,25.42
2022-08-23T18:33:12.416Z,26.10
2022-08-23T18:35:42.754Z,26.87
2022-08-23T18:38:13.737Z,26.58
2022-08-23T18:40:47.341Z,27.10
2022-08-23T18:43:19.052Z,27.11
2022-08-23T18:45:49.659Z,27.47
2022-08-23T18:48:19.549Z,27.82
2022-08-23T18:50:48.740Z,28.21
2022-08-23T18:53:20.959Z,28.34
2022-08-23T18:55:50.042Z,28.75
2022-08-23T18:58:19.060Z,28.95
2022-08-23T19:00:50.599Z,28.88
2022-08-23T19:03:19.485Z,29.15
2022-08-23T19:05:48.179Z,29.70
2022-08-23T19:08:19.385Z,29.46
2022-08-23T19:10:48.408Z,29.82
2022-08-23T19:13:17.017Z,29.74
2022-08-23T19:15:45.468Z,30.36
2022-08-23T19:18:14.524Z,30.43
2022-08-23T19:20:43.392Z,30.54
2022-08-23T19:23:12.069Z,30.83
2022-08-23T19:25:45.266Z,30.83
2022-08-23T19:28:14.633Z,31.16
2022-08-23T19:30:43.706Z,31.52
2022-08-23T19:33:12.301Z,31.16
2022-08-23T19:35:41.004Z,31.44
2022-08-23T19:38:09.550Z,31.58
2022-08-23T19:40:37.972Z,31.73
2022-08-23T19:43:08.078Z,32.08
2022-08-23T19:45:37.670Z,32.25
2022-08-23T19:48:06.622Z,32.27
2022-08-23T19:50:35.184Z,32.53
2022-08-23T19:53:03.822Z,32.77
2022-08-23T19:55:32.570Z,32.84
2022-08-23T19:58:01.303Z,33.07
2022-08-23T20:00:31.904Z,33.40
2022-08-23T20:03:00.847Z,33.84
2022-08-23T20:05:29.557Z,34.17
2022-08-23T20:07:57.935Z,33.90
2022-08-23T20:10:26.339Z,34.50
2022-08-23T20:12:55.008Z,34.59
2022-08-23T20:15:23.386Z,34.44
2022-08-23T20:17:53.346Z,34.74
2022-08-23T20:20:22.032Z,35.00
2022-08-23T20:23:07.663Z,34.66
2022-08-23T20:25:36.620Z,34.75
2022-08-23T20:28:08.198Z,34.89
2022-08-23T20:30:37.520Z,35.08
2022-08-23T20:33:07.305Z,35.31
2022-08-23T20:35:35.716Z,35.35
2022-08-23T20:38:04.522Z,35.52
2022-08-23T20:40:33.173Z,35.75
2022-08-23T20:43:01.742Z,35.80
2022-08-23T20:45:30.538Z,35.97
2022-08-23T20:47:58.908Z,35.82
2022-08-23T20:50:28.794Z,35.97
2022-08-23T20:52:57.282Z,35.88
2022-08-23T20:55:25.728Z,36.24
2022-08-23T20:57:54.120Z,36.59
2022-08-23T21:00:22.754Z,36.45
2022-08-23T21:02:51.128Z,36.82
2022-08-23T21:05:19.706Z,36.66
2022-08-23T21:07:49.507Z,36.95
2022-08-23T21:10:18.010Z,37.27
2022-08-23T21:12:46.378Z,37.57
2022-08-23T21:15:15.078Z,37.69
2022-08-23T21:17:43.452Z,37.61
2022-08-23T21:20:16.201Z,37.93
2022-08-23T21:22:44.647Z,37.73
2022-08-23T21:25:14.565Z,37.74
2022-08-23T21:27:43.628Z,37.94
2022-08-23T21:30:13.240Z,38.50
2022-08-23T21:32:41.643Z,38.75
2022-08-23T21:35:13.840Z,38.81
2022-08-23T21:37:42.304Z,38.58
2022-08-23T21:40:14.048Z,39.01
2022-08-23T21:42:42.497Z,38.78
2022-08-23T21:45:11.522Z,39.22
2022-08-23T21:47:40.193Z,39.13
2022-08-23T21:50:09.324Z,39.29
2022-08-23T21:52:37.698Z,39.37
2022-08-23T21:55:07.524Z,39.03
2022-08-23T21:57:37.435Z,39.08
2022-08-23T22:00:10.869Z,39.11
2022-08-23T22:02:41.145Z,39.64
2022-08-23T22:05:10.013Z,39.43
2022-08-23T22:07:39.407Z,39.37
2022-08-23T22:10:10.576Z,39.47
2022-08-23T22:12:41.326Z,39.57
2022-08-23T22:15:11.164Z,39.76
2022-08-23T22:17:39.533Z,39.91
2022-08-23T22:20:10.493Z,39.95
2022-08-23T22:22:39.221Z,39.67
2022-08-23T22:25:09.237Z,39.80
2022-08-23T22:27:39.383Z,40.05
2022-08-23T22:30:09.532Z,39.95
2022-08-23T22:32:38.247Z,40.25
2022-08-23T22:35:08.784Z,39.91
2022-08-23T22:37:43.048Z,40.43
2022-08-23T22:40:22.870Z,40.51
2022-08-23T22:42:52.820Z,40.56
2022-08-23T22:45:22.918Z,40.51
2022-08-23T22:47:51.372Z,40.43
2022-08-23T22:50:19.899Z,40.73
2022-08-23T22:52:48.635Z,40.64
2022-08-23T22:55:17.258Z,40.75
2022-08-23T22:57:45.690Z,40.80
2022-08-23T23:00:16.512Z,40.91
2022-08-23T23:02:44.980Z,40.95
2022-08-23T23:05:13.501Z,40.89
2022-08-23T23:07:59.545Z,41.32
2022-08-23T23:10:28.083Z,41.03
2022-08-23T23:12:56.711Z,41.15
2022-08-23T23:15:26.518Z,41.32
2022-08-23T23:17:54.868Z,41.45
2022-08-23T23:20:39.092Z,41.65
2022-08-23T23:23:12.815Z,41.56
2022-08-23T23:25:42.180Z,41.98
2022-08-23T23:28:10.933Z,41.81
2022-08-23T23:30:41.714Z,42.16
2022-08-23T23:33:10.284Z,42.47
2022-08-23T23:35:39.234Z,42.64
2022-08-23T23:38:08.281Z,42.48
2022-08-23T23:40:37.086Z,42.58
2022-08-23T23:43:05.812Z,42.54
2022-08-23T23:45:38.368Z,42.68
2022-08-23T23:48:08.686Z,43.09
2022-08-23T23:50:42.601Z,42.98
2022-08-23T23:53:13.964Z,43.42
2022-08-23T23:55:43.120Z,43.52
2022-08-23T23:58:12.582Z,43.65
